createdAt,value
2017-04-05T12:06:20.364Z,1028.63
2017-04-05T12:11:20.297Z,1028.59
2017-04-05T12:16:20.271Z,1028.52
2017-04-05T12:21:20.202Z,1028.55
2017-04-05T12:26:20.165Z,1028.48
2017-04-05T12:31:20.154Z,1028.4
2017-04-05T12:36:20.152Z,1028.41
2017-04-05T12:41:20.138Z,1028.42
2017-04-05T12:46:20.134Z,1028.41
2017-04-05T12:51:20.124Z,1028.37
2017-04-05T12:56:20.115Z,1028.33
2017-04-05T13:01:20.122Z,1028.35
2017-04-05T13:06:20.104Z,1028.27
2017-04-05T13:11:20.100Z,1028.29
2017-04-05T13:16:20.096Z,1028.19
2017-04-05T13:21:20.087Z,1028.18
2017-04-05T13:26:20.082Z,1028.15
2017-04-05T13:31:20.074Z,1028.09
2017-04-05T13:36:20.070Z,1028.1
2017-04-05T13:41:20.067Z,1028.1
2017-04-05T13:46:20.055Z,1028.13
2017-04-05T13:51:20.052Z,1028.1
2017-04-05T13:56:20.041Z,1028.13
2017-04-05T14:01:20.046Z,1028.15
2017-04-05T14:06:20.023Z,1028.09
2017-04-05T14:11:19.997Z,1028.07
2017-04-05T14:16:19.988Z,1028
2017-04-05T14:21:19.976Z,1027.99
2017-04-05T14:26:19.955Z,1027.94
2017-04-05T14:31:19.956Z,1027.92
2017-04-05T14:36:19.936Z,1027.9
2017-04-05T14:41:19.917Z,1027.94
2017-04-05T14:46:19.897Z,1027.96
2017-04-05T14:51:19.881Z,1027.91
2017-04-05T14:56:19.870Z,1027.74
2017-04-05T15:01:19.859Z,1027.73
2017-04-05T15:06:19.838Z,1027.8
2017-04-05T15:11:19.830Z,1027.88
2017-04-05T15:16:19.803Z,1027.89
2017-04-05T15:21:19.791Z,1027.88
2017-04-05T15:26:19.764Z,1027.95
2017-04-05T15:31:19.748Z,1027.95
2017-04-05T15:36:19.732Z,1027.92
2017-04-05T15:41:19.715Z,1027.91
2017-04-05T15:46:19.687Z,1027.79
2017-04-05T15:51:19.665Z,1027.8
2017-04-05T15:56:19.647Z,1027.8
2017-04-05T16:01:19.625Z,1027.72
2017-04-05T16:06:19.605Z,1027.79
2017-04-05T16:11:19.585Z,1027.92
2017-04-05T16:16:19.568Z,1027.94
2017-04-05T16:21:19.541Z,1027.91
2017-04-05T16:26:19.533Z,1027.91
2017-04-05T16:31:19.510Z,1027.91
2017-04-05T16:36:19.479Z,1027.82
2017-04-05T16:41:19.463Z,1027.8
2017-04-05T16:46:19.428Z,1027.93
2017-04-05T16:51:19.407Z,1027.92
2017-04-05T16:56:19.375Z,1028.01
2017-04-05T17:01:19.359Z,1027.98
2017-04-05T17:06:19.328Z,1028
2017-04-05T17:11:19.259Z,1027.99
2017-04-05T17:16:19.200Z,1028.09
2017-04-05T17:21:19.139Z,1028.04
2017-04-05T17:26:19.059Z,1028.13
2017-04-05T17:31:18.993Z,1028.15
2017-04-05T17:36:18.926Z,1028.23
2017-04-05T17:41:18.861Z,1028.36
2017-04-05T17:46:18.801Z,1028.34
2017-04-05T17:51:18.729Z,1028.4
2017-04-05T17:56:18.675Z,1028.39
2017-04-05T18:01:18.598Z,1028.51
2017-04-05T18:06:18.539Z,1028.59
2017-04-05T18:11:18.464Z,1028.6
2017-04-05T18:16:18.416Z,1028.58
2017-04-05T18:21:18.347Z,1028.63
2017-04-05T18:26:18.286Z,1028.66
2017-04-05T18:31:18.210Z,1028.71
2017-04-05T18:36:18.198Z,1028.75
2017-04-05T18:41:18.097Z,1028.76
2017-04-05T18:46:18.024Z,1028.73
2017-04-05T18:51:17.967Z,1028.67
2017-04-05T18:56:17.903Z,1028.73
2017-04-05T19:01:17.845Z,1028.83
2017-04-05T19:06:17.778Z,1028.88
2017-04-05T19:11:17.716Z,1028.9
2017-04-05T20:48:34.801Z,1028.83
